sensor_id;sensor_type;location;lat;lon;timestamp;pressure;altitude;pressure_sealevel;temperature;humidity
35489;BME280;21602;55.670;37.578;2023-07-13T00:02:15;98279.84;;;13.88;81.87
35489;BME280;21602;55.670;37.578;2023-07-13T00:04:41;98273.69;;;13.88;82.03
35489;BME280;21602;55.670;37.578;2023-07-13T00:07:07;98280.09;;;13.92;82.16
35489;BME280;21602;55.670;37.578;2023-07-13T00:09:34;98271.78;;;13.93;82.04
35489;BME280;21602;55.670;37.578;2023-07-13T00:12:03;98280.09;;;13.92;82.24
35489;BME280;21602;55.670;37.578;2023-07-13T00:14:32;98281.69;;;13.93;82.32
35489;BME280;21602;55.670;37.578;2023-07-13T00:16:59;98277.44;;;13.92;82.13
35489;BME280;21602;55.670;37.578;2023-07-13T00:19:26;98280.16;;;13.87;82.50
35489;BME280;21602;55.670;37.578;2023-07-13T00:21:51;98287.94;;;13.83;82.46
35489;BME280;21602;55.670;37.578;2023-07-13T00:24:21;98275.66;;;13.77;82.91
35489;BME280;21602;55.670;37.578;2023-07-13T00:26:49;98285.06;;;13.74;82.82
35489;BME280;21602;55.670;37.578;2023-07-13T00:29:15;98280.50;;;13.75;82.95
35489;BME280;21602;55.670;37.578;2023-07-13T00:31:41;98290.13;;;13.76;82.82
35489;BME280;21602;55.670;37.578;2023-07-13T00:34:08;98277.50;;;13.81;83.32
35489;BME280;21602;55.670;37.578;2023-07-13T00:36:33;98276.44;;;13.82;83.14
35489;BME280;21602;55.670;37.578;2023-07-13T00:38:59;98283.13;;;13.80;83.30
35489;BME280;21602;55.670;37.578;2023-07-13T00:41:25;98283.94;;;13.80;83.16
35489;BME280;21602;55.670;37.578;2023-07-13T00:43:51;98274.25;;;13.84;83.23
35489;BME280;21602;55.670;37.578;2023-07-13T00:46:24;98282.78;;;13.92;83.25
35489;BME280;21602;55.670;37.578;2023-07-13T00:48:50;98278.47;;;13.91;83.25
35489;BME280;21602;55.670;37.578;2023-07-13T00:51:21;98276.34;;;13.93;83.08
35489;BME280;21602;55.670;37.578;2023-07-13T00:53:47;98280.91;;;13.92;82.90
35489;BME280;21602;55.670;37.578;2023-07-13T00:56:13;98278.47;;;13.91;83.18
35489;BME280;21602;55.670;37.578;2023-07-13T00:58:39;98283.84;;;13.91;83.11
35489;BME280;21602;55.670;37.578;2023-07-13T01:01:05;98283.84;;;13.91;83.09
35489;BME280;21602;55.670;37.578;2023-07-13T01:03:31;98276.09;;;13.89;83.11
35489;BME280;21602;55.670;37.578;2023-07-13T01:05:58;98278.25;;;13.87;83.16
35489;BME280;21602;55.670;37.578;2023-07-13T01:08:24;98279.31;;;13.86;83.37
35489;BME280;21602;55.670;37.578;2023-07-13T01:10:56;98282.84;;;13.87;83.52
35489;BME280;21602;55.670;37.578;2023-07-13T01:13:24;98277.19;;;13.88;83.46
35489;BME280;21602;55.670;37.578;2023-07-13T01:15:52;98271.00;;;13.88;83.43
35489;BME280;21602;55.670;37.578;2023-07-13T01:18:23;98272.09;;;13.87;83.55
35489;BME280;21602;55.670;37.578;2023-07-13T01:20:52;98276.63;;;13.86;83.85
35489;BME280;21602;55.670;37.578;2023-07-13T01:23:18;98274.50;;;13.88;83.78
35489;BME280;21602;55.670;37.578;2023-07-13T01:25:45;98270.47;;;13.86;83.97
35489;BME280;21602;55.670;37.578;2023-07-13T01:28:11;98269.94;;;13.89;83.77
35489;BME280;21602;55.670;37.578;2023-07-13T01:30:38;98266.44;;;13.88;83.99
35489;BME280;21602;55.670;37.578;2023-07-13T01:33:06;98268.84;;;13.90;83.91
35489;BME280;21602;55.670;37.578;2023-07-13T01:35:33;98259.19;;;13.89;83.87
35489;BME280;21602;55.670;37.578;2023-07-13T01:38:00;98265.91;;;13.86;84.15
35489;BME280;21602;55.670;37.578;2023-07-13T01:40:27;98263.53;;;13.84;84.19
35489;BME280;21602;55.670;37.578;2023-07-13T01:42:53;98254.69;;;13.84;84.26
35489;BME280;21602;55.670;37.578;2023-07-13T01:45:20;98249.59;;;13.82;84.44
35489;BME280;21602;55.670;37.578;2023-07-13T01:47:47;98253.88;;;13.83;84.53
35489;BME280;21602;55.670;37.578;2023-07-13T01:50:12;98262.72;;;13.84;84.42
35489;BME280;21602;55.670;37.578;2023-07-13T01:52:38;98251.19;;;13.83;84.51
35489;BME280;21602;55.670;37.578;2023-07-13T01:55:04;98248.00;;;13.81;84.64
35489;BME280;21602;55.670;37.578;2023-07-13T01:57:30;98250.69;;;13.81;84.76
35489;BME280;21602;55.670;37.578;2023-07-13T01:59:56;98248.50;;;13.83;84.65
35489;BME280;21602;55.670;37.578;2023-07-13T02:02:22;98259.25;;;13.83;84.69
35489;BME280;21602;55.670;37.578;2023-07-13T02:04:48;98247.47;;;13.79;84.92
35489;BME280;21602;55.670;37.578;2023-07-13T02:07:13;98245.34;;;13.76;85.06
35489;BME280;21602;55.670;37.578;2023-07-13T02:09:42;98245.59;;;13.80;85.03
35489;BME280;21602;55.670;37.578;2023-07-13T02:12:08;98246.13;;;13.82;85.01
35489;BME280;21602;55.670;37.578;2023-07-13T02:14:34;98252.78;;;13.84;85.00
35489;BME280;21602;55.670;37.578;2023-07-13T02:17:00;98243.09;;;13.89;85.01
35489;BME280;21602;55.670;37.578;2023-07-13T02:19:26;98244.44;;;13.91;84.95
35489;BME280;21602;55.670;37.578;2023-07-13T02:21:52;98238.22;;;13.96;84.85
35489;BME280;21602;55.670;37.578;2023-07-13T02:24:18;98244.84;;;14.03;84.80
35489;BME280;21602;55.670;37.578;2023-07-13T02:26:46;98252.28;;;14.12;84.50
35489;BME280;21602;55.670;37.578;2023-07-13T02:29:12;98252.53;;;14.15;84.40
35489;BME280;21602;55.670;37.578;2023-07-13T02:31:38;98248.75;;;14.16;84.33
35489;BME280;21602;55.670;37.578;2023-07-13T02:34:04;98255.47;;;14.14;84.34
35489;BME280;21602;55.670;37.578;2023-07-13T02:36:31;98237.53;;;14.09;84.36
35489;BME280;21602;55.670;37.578;2023-07-13T02:39:00;98238.63;;;14.08;84.48
35489;BME280;21602;55.670;37.578;2023-07-13T02:41:26;98233.78;;;14.10;84.51
35489;BME280;21602;55.670;37.578;2023-07-13T02:43:52;98235.09;;;14.13;84.39
35489;BME280;21602;55.670;37.578;2023-07-13T02:46:18;98226.50;;;14.16;84.25
35489;BME280;21602;55.670;37.578;2023-07-13T02:48:45;98220.53;;;14.19;84.46
35489;BME280;21602;55.670;37.578;2023-07-13T02:51:12;98226.94;;;14.23;84.49
35489;BME280;21602;55.670;37.578;2023-07-13T02:53:38;98225.84;;;14.24;84.40
35489;BME280;21602;55.670;37.578;2023-07-13T02:56:05;98227.53;;;14.20;84.58
35489;BME280;21602;55.670;37.578;2023-07-13T02:58:31;98228.09;;;14.17;84.57
35489;BME280;21602;55.670;37.578;2023-07-13T03:00:57;98229.72;;;14.13;84.74
35489;BME280;21602;55.670;37.578;2023-07-13T03:03:23;98236.44;;;14.15;84.78
35489;BME280;21602;55.670;37.578;2023-07-13T03:06:01;98225.09;;;14.18;84.89
35489;BME280;21602;55.670;37.578;2023-07-13T03:08:33;98233.16;;;14.18;84.83
35489;BME280;21602;55.670;37.578;2023-07-13T03:11:19;98225.03;;;14.23;84.79
35489;BME280;21602;55.670;37.578;2023-07-13T03:13:52;98217.59;;;14.20;84.94
35489;BME280;21602;55.670;37.578;2023-07-13T03:16:19;98215.41;;;14.22;84.78
35489;BME280;21602;55.670;37.578;2023-07-13T03:18:48;98229.56;;;14.28;84.75
35489;BME280;21602;55.670;37.578;2023-07-13T03:21:15;98228.72;;;14.32;84.45
35489;BME280;21602;55.670;37.578;2023-07-13T03:23:41;98228.72;;;14.32;84.55
35489;BME280;21602;55.670;37.578;2023-07-13T03:26:10;98235.16;;;14.31;84.55
35489;BME280;21602;55.670;37.578;2023-07-13T03:28:39;98229.81;;;14.31;84.72
35489;BME280;21602;55.670;37.578;2023-07-13T03:31:12;98244.31;;;14.30;84.57
35489;BME280;21602;55.670;37.578;2023-07-13T03:33:38;98226.88;;;14.28;84.67
35489;BME280;21602;55.670;37.578;2023-07-13T03:36:06;98228.53;;;14.24;84.69
35489;BME280;21602;55.670;37.578;2023-07-13T03:38:32;98221.91;;;14.16;85.05
35489;BME280;21602;55.670;37.578;2023-07-13T03:41:00;98230.53;;;14.13;85.28
35489;BME280;21602;55.670;37.578;2023-07-13T03:43:29;98234.00;;;14.14;85.15
35489;BME280;21602;55.670;37.578;2023-07-13T03:45:55;98235.84;;;14.18;85.49
35489;BME280;21602;55.670;37.578;2023-07-13T03:48:21;98242.25;;;14.22;85.48
35489;BME280;21602;55.670;37.578;2023-07-13T03:50:47;98233.56;;;14.30;85.31
35489;BME280;21602;55.670;37.578;2023-07-13T03:53:15;98239.41;;;14.38;85.05
35489;BME280;21602;55.670;37.578;2023-07-13T03:55:41;98239.94;;;14.40;84.88
35489;BME280;21602;55.670;37.578;2023-07-13T03:58:30;98242.75;;;14.53;84.74
35489;BME280;21602;55.670;37.578;2023-07-13T04:01:04;98243.72;;;14.63;84.45
35489;BME280;21602;55.670;37.578;2023-07-13T04:03:31;98247.16;;;14.68;84.27
35489;BME280;21602;55.670;37.578;2023-07-13T04:06:00;98249.25;;;14.71;84.11
35489;BME280;21602;55.670;37.578;2023-07-13T04:08:28;98247.03;;;14.78;83.93
35489;BME280;21602;55.670;37.578;2023-07-13T04:10:54;98247.25;;;14.82;83.72
35489;BME280;21602;55.670;37.578;2023-07-13T04:13:20;98238.59;;;14.85;83.47
35489;BME280;21602;55.670;37.578;2023-07-13T04:15:46;98238.25;;;14.92;83.78
35489;BME280;21602;55.670;37.578;2023-07-13T04:18:12;98251.63;;;14.97;83.39
35489;BME280;21602;55.670;37.578;2023-07-13T04:20:38;98251.63;;;14.97;83.11
35489;BME280;21602;55.670;37.578;2023-07-13T04:23:04;98253.72;;;15.00;83.04
35489;BME280;21602;55.670;37.578;2023-07-13T04:25:30;98256.41;;;15.00;83.08
35489;BME280;21602;55.670;37.578;2023-07-13T04:27:59;98248.41;;;14.95;82.98
35489;BME280;21602;55.670;37.578;2023-07-13T04:30:25;98253.00;;;14.94;83.22
35489;BME280;21602;55.670;37.578;2023-07-13T04:32:52;98243.63;;;14.92;82.95
35489;BME280;21602;55.670;37.578;2023-07-13T04:35:19;98235.97;;;14.80;83.12
35489;BME280;21602;55.670;37.578;2023-07-13T04:37:49;98233.81;;;14.82;83.41
35489;BME280;21602;55.670;37.578;2023-07-13T04:40:19;98233.75;;;14.87;83.34
35489;BME280;21602;55.670;37.578;2023-07-13T04:42:47;98230.22;;;14.92;83.17
35489;BME280;21602;55.670;37.578;2023-07-13T04:45:14;98229.34;;;14.96;83.14
35489;BME280;21602;55.670;37.578;2023-07-13T04:47:40;98235.38;;;15.07;83.09
35489;BME280;21602;55.670;37.578;2023-07-13T04:50:08;98236.81;;;15.18;82.96
35489;BME280;21602;55.670;37.578;2023-07-13T04:52:36;98239.44;;;15.23;82.46
35489;BME280;21602;55.670;37.578;2023-07-13T04:55:01;98241.84;;;15.25;82.37
35489;BME280;21602;55.670;37.578;2023-07-13T04:57:27;98241.47;;;15.31;82.13
35489;BME280;21602;55.670;37.578;2023-07-13T04:59:53;98231.34;;;15.42;81.77
35489;BME280;21602;55.670;37.578;2023-07-13T05:02:21;98238.56;;;15.47;81.68
35489;BME280;21602;55.670;37.578;2023-07-13T05:04:47;98245.25;;;15.49;81.24
35489;BME280;21602;55.670;37.578;2023-07-13T05:07:13;98230.63;;;15.55;81.01
35489;BME280;21602;55.670;37.578;2023-07-13T05:09:39;98233.41;;;15.69;80.77
35489;BME280;21602;55.670;37.578;2023-07-13T05:12:08;98236.53;;;15.76;80.17
35489;BME280;21602;55.670;37.578;2023-07-13T05:14:34;98235.16;;;15.93;80.08
35489;BME280;21602;55.670;37.578;2023-07-13T05:16:59;98232.72;;;16.10;79.53
35489;BME280;21602;55.670;37.578;2023-07-13T05:19:25;98238.94;;;16.24;79.00
35489;BME280;21602;55.670;37.578;2023-07-13T05:21:51;98240.63;;;16.34;78.51
35489;BME280;21602;55.670;37.578;2023-07-13T05:24:17;98237.53;;;16.41;78.18
35489;BME280;21602;55.670;37.578;2023-07-13T05:26:44;98239.75;;;16.52;77.94
35489;BME280;21602;55.670;37.578;2023-07-13T05:29:10;98241.63;;;16.52;77.53
35489;BME280;21602;55.670;37.578;2023-07-13T05:31:37;98236.84;;;16.49;77.08
35489;BME280;21602;55.670;37.578;2023-07-13T05:34:02;98246.50;;;16.50;76.98
35489;BME280;21602;55.670;37.578;2023-07-13T05:36:28;98232.94;;;16.41;77.35
35489;BME280;21602;55.670;37.578;2023-07-13T05:38:54;98241.72;;;16.47;77.27
35489;BME280;21602;55.670;37.578;2023-07-13T05:41:20;98235.44;;;16.51;77.00
35489;BME280;21602;55.670;37.578;2023-07-13T05:43:45;98230.78;;;16.57;76.87
35489;BME280;21602;55.670;37.578;2023-07-13T05:46:11;98247.31;;;16.64;76.61
35489;BME280;21602;55.670;37.578;2023-07-13T05:48:40;98246.66;;;16.72;76.45
35489;BME280;21602;55.670;37.578;2023-07-13T05:51:06;98237.22;;;16.70;75.02
35489;BME280;21602;55.670;37.578;2023-07-13T05:53:34;98230.88;;;16.79;74.90
35489;BME280;21602;55.670;37.578;2023-07-13T05:56:00;98223.97;;;16.87;74.81
35489;BME280;21602;55.670;37.578;2023-07-13T05:58:26;98226.66;;;16.87;74.19
35489;BME280;21602;55.670;37.578;2023-07-13T06:01:06;98233.63;;;17.02;73.67
35489;BME280;21602;55.670;37.578;2023-07-13T06:03:33;98237.59;;;17.18;73.65
35489;BME280;21602;55.670;37.578;2023-07-13T06:05:59;98238.22;;;17.15;72.42
35489;BME280;21602;55.670;37.578;2023-07-13T06:08:28;98234.53;;;17.11;71.04
35489;BME280;21602;55.670;37.578;2023-07-13T06:11:14;98232.31;;;17.13;69.39
35489;BME280;21602;55.670;37.578;2023-07-13T06:13:41;98233.19;;;17.22;70.49
35489;BME280;21602;55.670;37.578;2023-07-13T06:16:16;98229.41;;;17.46;69.96
35489;BME280;21602;55.670;37.578;2023-07-13T06:18:43;98233.41;;;17.71;69.85
35489;BME280;21602;55.670;37.578;2023-07-13T06:21:10;98216.25;;;17.89;68.86
35489;BME280;21602;55.670;37.578;2023-07-13T06:23:37;98230.31;;;18.00;67.87
35489;BME280;21602;55.670;37.578;2023-07-13T06:26:04;98206.00;;;18.00;67.67
35489;BME280;21602;55.670;37.578;2023-07-13T06:28:31;98214.44;;;18.07;66.87
35489;BME280;21602;55.670;37.578;2023-07-13T06:31:12;98208.75;;;18.17;65.34
35489;BME280;21602;55.670;37.578;2023-07-13T06:34:33;98210.41;;;18.27;65.00
35489;BME280;21602;55.670;37.578;2023-07-13T06:37:06;98211.59;;;18.43;64.50
35489;BME280;21602;55.670;37.578;2023-07-13T06:39:33;98207.81;;;18.53;63.58
35489;BME280;21602;55.670;37.578;2023-07-13T06:41:59;98210.34;;;18.49;63.40
35489;BME280;21602;55.670;37.578;2023-07-13T06:44:26;98214.03;;;18.62;62.65
35489;BME280;21602;55.670;37.578;2023-07-13T06:46:53;98207.88;;;18.70;62.46
35489;BME280;21602;55.670;37.578;2023-07-13T06:49:19;98208.38;;;18.72;62.31
35489;BME280;21602;55.670;37.578;2023-07-13T06:51:44;98214.88;;;18.80;62.24
35489;BME280;21602;55.670;37.578;2023-07-13T06:54:10;98209.66;;;18.83;61.69
35489;BME280;21602;55.670;37.578;2023-07-13T06:56:36;98212.50;;;18.78;59.46
35489;BME280;21602;55.670;37.578;2023-07-13T06:59:02;98218.16;;;18.59;59.73
35489;BME280;21602;55.670;37.578;2023-07-13T07:01:28;98217.50;;;18.54;60.01
35489;BME280;21602;55.670;37.578;2023-07-13T07:03:53;98213.19;;;18.44;59.14
35489;BME280;21602;55.670;37.578;2023-07-13T07:06:21;98209.81;;;18.38;59.33
35489;BME280;21602;55.670;37.578;2023-07-13T07:08:49;98216.66;;;18.45;59.51
35489;BME280;21602;55.670;37.578;2023-07-13T07:11:21;98216.34;;;18.46;59.55
35489;BME280;21602;55.670;37.578;2023-07-13T07:13:57;98204.75;;;18.46;59.69
35489;BME280;21602;55.670;37.578;2023-07-13T07:17:40;98209.59;;;18.66;59.60
35489;BME280;21602;55.670;37.578;2023-07-13T07:20:06;98217.22;;;18.64;59.84
35489;BME280;21602;55.670;37.578;2023-07-13T07:22:32;98220.53;;;18.61;59.36
35489;BME280;21602;55.670;37.578;2023-07-13T07:25:01;98213.81;;;18.50;58.50
35489;BME280;21602;55.670;37.578;2023-07-13T07:27:27;98216.25;;;18.60;58.83
35489;BME280;21602;55.670;37.578;2023-07-13T07:29:53;98219.59;;;18.65;58.72
35489;BME280;21602;55.670;37.578;2023-07-13T07:32:20;98217.22;;;18.64;58.93
35489;BME280;21602;55.670;37.578;2023-07-13T07:34:46;98215.63;;;18.63;58.95
35489;BME280;21602;55.670;37.578;2023-07-13T07:37:15;98225.19;;;18.69;59.01
35489;BME280;21602;55.670;37.578;2023-07-13T07:39:43;98228.72;;;18.78;59.09
35489;BME280;21602;55.670;37.578;2023-07-13T07:42:10;98223.28;;;18.70;59.35
35489;BME280;21602;55.670;37.578;2023-07-13T07:44:40;98224.06;;;18.61;59.54
35489;BME280;21602;55.670;37.578;2023-07-13T07:47:07;98223.69;;;18.54;60.09
35489;BME280;21602;55.670;37.578;2023-07-13T07:49:33;98236.88;;;18.56;59.91
35489;BME280;21602;55.670;37.578;2023-07-13T07:51:58;98239.72;;;18.51;60.09
35489;BME280;21602;55.670;37.578;2023-07-13T07:54:24;98242.09;;;18.43;60.04
35489;BME280;21602;55.670;37.578;2023-07-13T07:56:50;98233.22;;;18.43;60.64
35489;BME280;21602;55.670;37.578;2023-07-13T07:59:16;98238.28;;;18.45;61.07
35489;BME280;21602;55.670;37.578;2023-07-13T08:01:41;98227.16;;;18.37;61.79
35489;BME280;21602;55.670;37.578;2023-07-13T08:04:09;98235.72;;;18.39;61.56
35489;BME280;21602;55.670;37.578;2023-07-13T08:06:35;98235.41;;;18.41;61.87
35489;BME280;21602;55.670;37.578;2023-07-13T08:09:01;98232.41;;;18.42;62.48
35489;BME280;21602;55.670;37.578;2023-07-13T08:11:31;98230.28;;;18.31;62.32
35489;BME280;21602;55.670;37.578;2023-07-13T08:13:57;98239.13;;;18.23;61.46
35489;BME280;21602;55.670;37.578;2023-07-13T08:16:23;98214.97;;;18.17;61.61
35489;BME280;21602;55.670;37.578;2023-07-13T08:18:49;98246.09;;;18.15;61.73
35489;BME280;21602;55.670;37.578;2023-07-13T08:21:15;98242.91;;;18.13;61.71
35489;BME280;21602;55.670;37.578;2023-07-13T08:23:41;98240.56;;;18.20;61.41
35489;BME280;21602;55.670;37.578;2023-07-13T08:29:15;98237.16;;;18.06;61.02
35489;BME280;21602;55.670;37.578;2023-07-13T08:31:44;98240.66;;;18.06;61.38
35489;BME280;21602;55.670;37.578;2023-07-13T08:34:23;98235.56;;;18.05;61.46
35489;BME280;21602;55.670;37.578;2023-07-13T08:36:48;98246.19;;;18.01;60.63
35489;BME280;21602;55.670;37.578;2023-07-13T08:39:14;98237.41;;;17.96;60.33
35489;BME280;21602;55.670;37.578;2023-07-13T08:41:40;98237.75;;;18.03;60.67
35489;BME280;21602;55.670;37.578;2023-07-13T08:44:17;98244.66;;;18.09;60.53
35489;BME280;21602;55.670;37.578;2023-07-13T08:46:46;98231.94;;;18.09;60.92
35489;BME280;21602;55.670;37.578;2023-07-13T08:49:19;98237.16;;;18.06;61.86
35489;BME280;21602;55.670;37.578;2023-07-13T08:51:53;98241.09;;;18.00;62.93
35489;BME280;21602;55.670;37.578;2023-07-13T08:54:29;98250.13;;;17.95;63.36
35489;BME280;21602;55.670;37.578;2023-07-13T08:56:57;98256.72;;;17.89;64.36
35489;BME280;21602;55.670;37.578;2023-07-13T08:59:25;98259.41;;;17.80;65.56
35489;BME280;21602;55.670;37.578;2023-07-13T09:04:28;98259.13;;;17.68;67.25
35489;BME280;21602;55.670;37.578;2023-07-13T09:12:25;98258.50;;;17.49;71.61
35489;BME280;21602;55.670;37.578;2023-07-13T09:14:58;98253.31;;;17.38;71.34
35489;BME280;21602;55.670;37.578;2023-07-13T09:17:29;98257.09;;;17.37;71.48
35489;BME280;21602;55.670;37.578;2023-07-13T09:20:42;98260.31;;;17.39;71.65
35489;BME280;21602;55.670;37.578;2023-07-13T09:23:17;98265.72;;;17.39;72.62
35489;BME280;21602;55.670;37.578;2023-07-13T09:25:59;98271.66;;;17.50;72.75
35489;BME280;21602;55.670;37.578;2023-07-13T09:28:28;98272.88;;;17.44;72.29
35489;BME280;21602;55.670;37.578;2023-07-13T09:31:23;98273.69;;;17.45;73.50
35489;BME280;21602;55.670;37.578;2023-07-13T09:33:51;98279.34;;;17.21;73.90
35489;BME280;21602;55.670;37.578;2023-07-13T09:36:21;98286.53;;;17.25;73.82
35489;BME280;21602;55.670;37.578;2023-07-13T09:39:04;98277.84;;;17.28;74.08
35489;BME280;21602;55.670;37.578;2023-07-13T09:44:16;98285.63;;;17.16;75.14
35489;BME280;21602;55.670;37.578;2023-07-13T09:46:51;98287.53;;;17.15;75.41
35489;BME280;21602;55.670;37.578;2023-07-13T09:49:18;98273.75;;;17.17;75.71
35489;BME280;21602;55.670;37.578;2023-07-13T09:51:44;98277.34;;;17.12;76.17
35489;BME280;21602;55.670;37.578;2023-07-13T09:54:18;98276.78;;;17.02;77.77
35489;BME280;21602;55.670;37.578;2023-07-13T09:56:45;98279.78;;;17.00;77.24
35489;BME280;21602;55.670;37.578;2023-07-13T09:59:21;98285.56;;;16.94;77.70
35489;BME280;21602;55.670;37.578;2023-07-13T10:01:48;98287.34;;;16.84;77.78
35489;BME280;21602;55.670;37.578;2023-07-13T10:04:17;98284.56;;;16.76;78.38
35489;BME280;21602;55.670;37.578;2023-07-13T10:06:45;98284.25;;;16.63;79.16
35489;BME280;21602;55.670;37.578;2023-07-13T10:09:15;98280.75;;;16.63;79.34
35489;BME280;21602;55.670;37.578;2023-07-13T10:11:42;98275.94;;;16.60;79.31
35489;BME280;21602;55.670;37.578;2023-07-13T10:14:21;98277.75;;;16.51;79.46
35489;BME280;21602;55.670;37.578;2023-07-13T10:16:55;98280.13;;;16.38;79.74
35489;BME280;21602;55.670;37.578;2023-07-13T10:19:25;98291.28;;;16.32;79.68
35489;BME280;21602;55.670;37.578;2023-07-13T10:21:57;98289.47;;;16.27;80.49
35489;BME280;21602;55.670;37.578;2023-07-13T10:24:32;98278.59;;;16.19;80.19
35489;BME280;21602;55.670;37.578;2023-07-13T10:27:31;98286.59;;;16.24;80.34
35489;BME280;21602;55.670;37.578;2023-07-13T10:30:05;98286.59;;;16.24;80.70
35489;BME280;21602;55.670;37.578;2023-07-13T10:32:35;98287.41;;;16.24;81.36
35489;BME280;21602;55.670;37.578;2023-07-13T10:35:01;98289.19;;;16.29;80.82
35489;BME280;21602;55.670;37.578;2023-07-13T10:37:37;98282.09;;;16.19;81.36
35489;BME280;21602;55.670;37.578;2023-07-13T10:40:05;98285.38;;;16.16;81.23
35489;BME280;21602;55.670;37.578;2023-07-13T10:42:39;98289.66;;;16.17;81.73
35489;BME280;21602;55.670;37.578;2023-07-13T10:45:17;98295.56;;;16.19;81.46
35489;BME280;21602;55.670;37.578;2023-07-13T10:47:44;98297.25;;;16.15;81.84
35489;BME280;21602;55.670;37.578;2023-07-13T10:50:20;98303.78;;;16.09;81.96
35489;BME280;21602;55.670;37.578;2023-07-13T10:52:55;98304.41;;;16.06;82.38
35489;BME280;21602;55.670;37.578;2023-07-13T10:58:18;98302.50;;;16.06;83.12
35489;BME280;21602;55.670;37.578;2023-07-13T11:03:35;98291.59;;;15.98;82.92
35489;BME280;21602;55.670;37.578;2023-07-13T11:06:09;98298.88;;;15.97;82.98
35489;BME280;21602;55.670;37.578;2023-07-13T11:11:35;98305.56;;;16.00;83.36
35489;BME280;21602;55.670;37.578;2023-07-13T11:16:47;98302.38;;;15.98;83.64
35489;BME280;21602;55.670;37.578;2023-07-13T11:22:01;98290.50;;;15.99;83.36
35489;BME280;21602;55.670;37.578;2023-07-13T11:24:56;98293.41;;;16.02;83.91
35489;BME280;21602;55.670;37.578;2023-07-13T11:27:43;98286.22;;;15.98;83.64
35489;BME280;21602;55.670;37.578;2023-07-13T11:36:03;98276.81;;;15.81;84.69
35489;BME280;21602;55.670;37.578;2023-07-13T11:38:32;98280.00;;;15.83;85.23
35489;BME280;21602;55.670;37.578;2023-07-13T11:41:03;98272.41;;;15.85;85.11
35489;BME280;21602;55.670;37.578;2023-07-13T11:43:30;98271.03;;;15.88;85.19
35489;BME280;21602;55.670;37.578;2023-07-13T11:45:56;98272.25;;;15.96;85.30
35489;BME280;21602;55.670;37.578;2023-07-13T11:48:35;98260.41;;;15.97;85.19
35489;BME280;21602;55.670;37.578;2023-07-13T11:51:26;98263.41;;;15.95;85.29
35489;BME280;21602;55.670;37.578;2023-07-13T11:53:55;98273.06;;;15.96;85.08
35489;BME280;21602;55.670;37.578;2023-07-13T11:56:23;98270.06;;;15.98;85.35
35489;BME280;21602;55.670;37.578;2023-07-13T11:58:51;98265.88;;;15.92;85.38
35489;BME280;21602;55.670;37.578;2023-07-13T12:01:24;98275.75;;;15.96;85.59
35489;BME280;21602;55.670;37.578;2023-07-13T12:04:05;98279.25;;;15.97;85.13
35489;BME280;21602;55.670;37.578;2023-07-13T12:06:34;98275.84;;;15.91;85.38
35489;BME280;21602;55.670;37.578;2023-07-13T12:09:12;98276.72;;;15.86;85.45
35489;BME280;21602;55.670;37.578;2023-07-13T12:11:40;98279.09;;;15.88;85.90
35489;BME280;21602;55.670;37.578;2023-07-13T12:14:14;98276.03;;;15.95;86.10
35489;BME280;21602;55.670;37.578;2023-07-13T12:16:44;98286.22;;;15.98;85.91
35489;BME280;21602;55.670;37.578;2023-07-13T12:19:25;98289.00;;;15.93;86.21
35489;BME280;21602;55.670;37.578;2023-07-13T12:21:54;98286.59;;;15.91;86.25
35489;BME280;21602;55.670;37.578;2023-07-13T12:24:21;98285.81;;;15.91;86.18
35489;BME280;21602;55.670;37.578;2023-07-13T12:26:58;98278.81;;;15.90;85.76
35489;BME280;21602;55.670;37.578;2023-07-13T12:29:25;98279.03;;;15.93;86.11
35489;BME280;21602;55.670;37.578;2023-07-13T12:31:52;98271.47;;;15.95;86.08
35489;BME280;21602;55.670;37.578;2023-07-13T12:34:23;98276.03;;;15.95;85.16
35489;BME280;21602;55.670;37.578;2023-07-13T12:36:59;98263.81;;;16.02;85.02
35489;BME280;21602;55.670;37.578;2023-07-13T12:39:36;98266.19;;;16.04;84.50
35489;BME280;21602;55.670;37.578;2023-07-13T12:45:22;98256.53;;;16.03;85.29
35489;BME280;21602;55.670;37.578;2023-07-13T12:47:56;98255.50;;;15.99;85.01
35489;BME280;21602;55.670;37.578;2023-07-13T12:50:30;98263.59;;;15.99;84.68
35489;BME280;21602;55.670;37.578;2023-07-13T12:53:02;98264.28;;;15.91;83.75
35489;BME280;21602;55.670;37.578;2023-07-13T12:55:50;98263.09;;;15.97;84.46
35489;BME280;21602;55.670;37.578;2023-07-13T12:58:25;98263.09;;;15.97;84.47
35489;BME280;21602;55.670;37.578;2023-07-13T13:00:55;98283.03;;;15.96;84.60
35489;BME280;21602;55.670;37.578;2023-07-13T13:06:21;98272.75;;;15.98;85.13
35489;BME280;21602;55.670;37.578;2023-07-13T13:08:53;98273.63;;;15.93;85.09
35489;BME280;21602;55.670;37.578;2023-07-13T13:11:24;98267.47;;;15.93;85.41
35489;BME280;21602;55.670;37.578;2023-07-13T13:13:52;98264.34;;;15.85;85.37
35489;BME280;21602;55.670;37.578;2023-07-13T13:16:32;98260.66;;;15.81;85.85
35489;BME280;21602;55.670;37.578;2023-07-13T13:19:13;98260.13;;;15.79;85.75
35489;BME280;21602;55.670;37.578;2023-07-13T13:21:40;98262.13;;;15.74;85.74
35489;BME280;21602;55.670;37.578;2023-07-13T13:24:15;98251.13;;;15.70;86.43
35489;BME280;21602;55.670;37.578;2023-07-13T13:26:42;98267.00;;;15.72;86.38
35489;BME280;21602;55.670;37.578;2023-07-13T13:29:22;98264.00;;;15.73;86.34
35489;BME280;21602;55.670;37.578;2023-07-13T13:31:53;98264.81;;;15.74;86.56
35489;BME280;21602;55.670;37.578;2023-07-13T13:34:20;98245.19;;;15.73;86.40
35489;BME280;21602;55.670;37.578;2023-07-13T13:36:49;98244.47;;;15.68;86.20
35489;BME280;21602;55.670;37.578;2023-07-13T13:39:24;98235.22;;;15.55;86.44
35489;BME280;21602;55.670;37.578;2023-07-13T13:41:52;98241.25;;;15.47;86.19
35489;BME280;21602;55.670;37.578;2023-07-13T13:44:19;98260.66;;;15.44;86.75